Impacts TAF Board
For situational awareness. Not to be used for flight planning purposes.
IDs:

KANB - Anniston Metro, AL, US

Issued at 2341 UTC 05 Dec 2020
Updated at 0230 UTC 06 Dec 2020
Potential Impact None Slight Moderate High
Time2353Z 06/03Z 06/04Z 06/05Z 06/06Z 06/07Z 06/08Z 06/09Z 06/10Z 06/11Z 06/12Z 06/13Z 06/14Z 06/15Z>>
Type OBS PRVL PRVL PRVL PRVL PRVL PRVL PRVL
  [TEMP]  
PRVL
  [TEMP]  
PRVL
  [TEMP]  
PRVL
  [TEMP]  
PRVL PRVL PRVL
VIS 10 >6 >6 >6 >6 >6 4 4
  [2]  
4
  [2]  
4
  [2]  
4
  [2]  
4 4 >6
CIG -- -- -- -- -- -- -- --
  [--]  
--
  [--]  
--
  [--]  
--
  [--]  
-- -- --
Cover CLR FEW FEW FEW FEW FEW FEW FEW
  [FEW]  
FEW
  [FEW]  
FEW
  [FEW]  
FEW
  [FEW]  
FEW FEW SCT
FltCat VFR VFR VFR VFR VFR VFR MVFR MVFR
  [IFR]  
MVFR
  [IFR]  
MVFR
  [IFR]  
MVFR
  [IFR]  
MVFR MVFR VFR
WX -- -- -- -- -- -- BR BR
  [BR]  
BR
  [BR]  
BR
  [BR]  
BR
  [BR]  
BR BR --
WDir VRB VRB VRB VRB VRB VRB VRB VRB
[VRB]
VRB
[VRB]
VRB
[VRB]
VRB
[VRB]
VRB VRB 240
WSpd 0 0 0 0 0 0 0 0
  [0]  
0
  [0]  
0
  [0]  
0
  [0]  
0 0 6
WGst -- -- -- -- -- -- -- --
  [--]  
--
  [--]  
--
  [--]  
--
  [--]  
-- -- --
Raw TAF
KANB 052341Z 0600/0624 00000KT P6SM FEW250
  FM060800 00000KT 4SM BR FEW250
  TEMPO 0609/0613 2SM BR
  FM061500 24006KT P6SM SCT150


Raw METAR
KANB 052353Z AUTO 00000KT 10SM CLR 06/03 A3010 RMK AO2 SLP203 T00610033 10150 20056 53005

METAR Board
Radar Display
Forecast Discussion
For situational awareness. Not to be used for flight planning purposes.